Time;durP1;ratioP1;P1;durP2;ratioP2;P2;SDS_P1;SDS_P2;PMS_P1;PMS_P2;Temp;Humidity;BMP_temperature;BMP_pressure;BME280_temperature;BME280_humidity;BME280_pressure;Samples;Min_cycle;Max_cycle;Signal;HPM_P1;HPM_P2
2023/10/18 00:01:05;;;;;;;8.63;6.40;;;;;;;;;;5073289;28;20457;-78
2023/10/18 00:03:32;;;;;;;7.20;6.43;;;;;;;;;;5073267;28;20487;-82
2023/10/18 00:06:15;;;;;;;13.43;5.83;;;;;;;;;;5055036;28;20439;-83
2023/10/18 00:08:41;;;;;;;8.07;5.87;;;;;;;;;;5073260;28;20453;-77
2023/10/18 00:11:07;;;;;;;9.67;6.17;;;;;;;;;;5055209;28;20510;-80
2023/10/18 00:13:33;;;;;;;6.77;5.40;;;;;;;;;;5073194;28;20574;-80
2023/10/18 00:16:20;;;;;;;7.40;5.17;;;;;;;;;;5072998;28;20404;-83
2023/10/18 00:18:48;;;;;;;10.30;6.50;;;;;;;;;;5072760;28;20441;-78
2023/10/18 00:21:14;;;;;;;11.00;6.57;;;;;;;;;;5073058;28;20498;-82
2023/10/18 00:23:40;;;;;;;15.00;7.03;;;;;;;;;;5073110;28;20785;-79
2023/10/18 00:26:07;;;;;;;8.83;5.40;;;;;;;;;;5055042;28;20433;-85
2023/10/18 00:28:36;;;;;;;10.30;5.93;;;;;;;;;;5073170;28;20519;-79
2023/10/18 00:31:11;;;;;;;14.13;5.80;;;;;;;;;;5072931;28;20435;-84
2023/10/18 00:33:38;;;;;;;15.63;6.17;;;;;;;;;;5069795;28;20626;-80
2023/10/18 00:36:04;;;;;;;12.53;5.80;;;;;;;;;;5071659;28;20408;-84
2023/10/18 00:38:30;;;;;;;11.50;5.93;;;;;;;;;;5072513;28;20514;-78
2023/10/18 00:40:56;;;;;;;10.97;5.77;;;;;;;;;;5072487;28;20939;-84
2023/10/18 00:43:25;;;;;;;10.53;5.30;;;;;;;;;;5054714;28;20446;-79
2023/10/18 00:45:51;;;;;;;9.33;5.40;;;;;;;;;;5072723;28;20506;-81
2023/10/18 00:48:30;;;;;;;15.67;6.53;;;;;;;;;;5072502;28;20468;-83
2023/10/18 00:50:58;;;;;;;13.37;6.80;;;;;;;;;;5072279;28;20983;-84
2023/10/18 00:53:30;;;;;;;9.53;5.60;;;;;;;;;;5054527;28;20536;-82
2023/10/18 00:56:00;;;;;;;13.10;5.90;;;;;;;;;;5072585;28;20470;-82
2023/10/18 00:58:38;;;;;;;15.00;6.13;;;;;;;;;;5072677;28;20419;-84
2023/10/18 01:01:10;;;;;;;10.20;6.23;;;;;;;;;;5072468;28;20414;-78
2023/10/18 01:03:42;;;;;;;12.63;5.57;;;;;;;;;;5071945;28;20777;-82
2023/10/18 01:06:16;;;;;;;8.87;5.00;;;;;;;;;;5072487;28;20415;-78
2023/10/18 01:08:42;;;;;;;11.00;5.50;;;;;;;;;;5072304;28;20434;-78
2023/10/18 01:11:10;;;;;;;5.17;3.73;;;;;;;;;;5072430;28;20888;-78
2023/10/18 01:13:43;;;;;;;8.40;3.70;;;;;;;;;;5072455;28;20507;-82
2023/10/18 01:16:20;;;;;;;7.93;4.70;;;;;;;;;;5072459;28;20401;-78
2023/10/18 01:18:47;;;;;;;10.77;4.97;;;;;;;;;;5072077;28;20419;-81
2023/10/18 01:21:16;;;;;;;8.07;4.70;;;;;;;;;;5072340;28;20414;-79
2023/10/18 01:23:49;;;;;;;7.97;3.70;;;;;;;;;;5071918;28;20841;-77
2023/10/18 01:26:15;;;;;;;7.20;3.30;;;;;;;;;;5072788;28;20409;-84
2023/10/18 01:28:41;;;;;;;6.00;3.80;;;;;;;;;;5072565;28;20510;-77
2023/10/18 01:31:07;;;;;;;8.23;4.03;;;;;;;;;;5055156;28;20915;-77
2023/10/18 01:33:43;;;;;;;5.40;4.07;;;;;;;;;;5054395;28;20549;-77
2023/10/18 01:36:13;;;;;;;5.60;3.23;;;;;;;;;;5072491;28;20410;-78
2023/10/18 01:38:42;;;;;;;4.43;3.47;;;;;;;;;;5072532;28;20411;-77
2023/10/18 01:41:25;;;;;;;5.70;3.60;;;;;;;;;;5054813;28;20419;-77
2023/10/18 01:43:51;;;;;;;4.43;2.80;;;;;;;;;;5073764;28;20412;-77
2023/10/18 01:46:17;;;;;;;5.13;3.33;;;;;;;;;;5072522;28;20420;-77
2023/10/18 01:48:50;;;;;;;6.00;2.73;;;;;;;;;;5071945;28;20469;-77
2023/10/18 01:51:16;;;;;;;5.60;2.77;;;;;;;;;;5072089;28;20408;-77
2023/10/18 01:53:43;;;;;;;5.43;3.33;;;;;;;;;;5057510;28;20471;-78
2023/10/18 01:56:09;;;;;;;7.30;3.90;;;;;;;;;;5058034;28;20891;-78
2023/10/18 01:58:35;;;;;;;4.83;3.67;;;;;;;;;;5058037;28;20483;-77
2023/10/18 02:01:07;;;;;;;14.10;4.57;;;;;;;;;;5075976;28;20465;-80
2023/10/18 02:03:34;;;;;;;15.03;5.20;;;;;;;;;;5075552;28;20414;-78
2023/10/18 02:06:05;;;;;;;12.00;5.07;;;;;;;;;;5076009;28;20511;-78
2023/10/18 02:08:31;;;;;;;12.37;4.47;;;;;;;;;;5057869;28;20490;-84
2023/10/18 02:10:57;;;;;;;16.60;5.10;;;;;;;;;;5075672;28;20988;-77
2023/10/18 02:13:23;;;;;;;11.97;4.57;;;;;;;;;;5075637;28;20557;-81
2023/10/18 02:15:50;;;;;;;6.67;3.87;;;;;;;;;;5075725;28;20497;-80
2023/10/18 02:18:16;;;;;;;10.43;4.20;;;;;;;;;;5075682;28;20409;-83
2023/10/18 02:20:50;;;;;;;19.53;6.13;;;;;;;;;;5057381;28;20453;-84
2023/10/18 02:23:16;;;;;;;14.07;4.60;;;;;;;;;;5075637;28;20453;-79
2023/10/18 02:28:08;;;;;;;6.87;3.20;;;;;;;;;;5075396;28;20504;-83
2023/10/18 02:30:35;;;;;;;7.77;4.17;;;;;;;;;;5075320;28;20407;-79
2023/10/18 02:33:02;;;;;;;8.20;3.73;;;;;;;;;;5075430;28;20469;-78
2023/10/18 02:35:28;;;;;;;10.93;4.40;;;;;;;;;;5074951;28;20408;-82
2023/10/18 02:37:54;;;;;;;12.63;4.37;;;;;;;;;;5075223;28;20397;-79
2023/10/18 02:40:29;;;;;;;11.80;4.77;;;;;;;;;;5075261;28;20404;-78
2023/10/18 02:42:58;;;;;;;13.07;4.50;;;;;;;;;;5057167;28;20770;-82
2023/10/18 02:45:24;;;;;;;10.87;4.13;;;;;;;;;;5075222;28;20942;-79
2023/10/18 02:47:51;;;;;;;12.47;4.43;;;;;;;;;;5075053;28;20455;-77
2023/10/18 02:50:17;;;;;;;13.17;4.23;;;;;;;;;;5074598;28;20408;-78
2023/10/18 02:52:46;;;;;;;6.57;4.27;;;;;;;;;;5074954;28;20508;-78
2023/10/18 02:55:19;;;;;;;14.07;4.10;;;;;;;;;;5074956;28;20407;-80
2023/10/18 02:57:49;;;;;;;14.30;4.50;;;;;;;;;;5075054;28;20402;-78
2023/10/18 03:00:19;;;;;;;12.80;4.63;;;;;;;;;;5074961;28;20399;-78
2023/10/18 03:02:45;;;;;;;7.80;4.07;;;;;;;;;;5056639;28;20411;-78
2023/10/18 03:05:11;;;;;;;13.43;4.10;;;;;;;;;;5074813;28;20771;-78
2023/10/18 03:07:37;;;;;;;14.27;4.60;;;;;;;;;;5074715;28;20414;-78
2023/10/18 03:10:19;;;;;;;12.13;3.63;;;;;;;;;;5074113;28;20426;-78
2023/10/18 03:12:44;;;;;;;6.40;3.57;;;;;;;;;;5056648;28;20465;-78
2023/10/18 03:15:17;;;;;;;8.00;4.67;;;;;;;;;;5047522;28;20426;-77
2023/10/18 03:17:49;;;;;;;12.37;4.60;;;;;;;;;;5065058;28;20750;-78
2023/10/18 03:20:22;;;;;;;9.30;3.93;;;;;;;;;;5046659;28;20404;-79
2023/10/18 03:22:49;;;;;;;13.20;4.67;;;;;;;;;;5065216;28;20492;-78
2023/10/18 03:25:30;;;;;;;14.93;4.40;;;;;;;;;;5064832;28;20430;-79
2023/10/18 03:28:04;;;;;;;4.27;2.53;;;;;;;;;;5063758;28;20413;-78
2023/10/18 03:30:46;;;;;;;8.37;2.17;;;;;;;;;;5063995;28;20398;-77
2023/10/18 03:33:12;;;;;;;6.63;3.13;;;;;;;;;;5064704;28;20523;-77
2023/10/18 03:35:40;;;;;;;7.63;2.50;;;;;;;;;;5064383;28;20461;-78
2023/10/18 03:38:17;;;;;;;21.80;4.00;;;;;;;;;;5063242;28;20776;-81
2023/10/18 03:40:56;;;;;;;14.63;3.40;;;;;;;;;;5064716;28;20453;-77
2023/10/18 03:43:32;;;;;;;16.30;3.30;;;;;;;;;;5046806;28;20411;-77
2023/10/18 03:46:13;;;;;;;8.20;2.93;;;;;;;;;;5047358;28;21003;-80
2023/10/18 03:48:54;;;;;;;4.20;1.57;;;;;;;;;;5064055;28;20466;-78
2023/10/18 03:51:23;;;;;;;3.40;2.10;;;;;;;;;;5064489;28;20403;-78
2023/10/18 03:53:52;;;;;;;2.23;1.47;;;;;;;;;;5063187;28;20991;-78
2023/10/18 03:56:19;;;;;;;6.70;2.47;;;;;;;;;;5062564;28;20401;-78
2023/10/18 03:58:49;;;;;;;3.80;2.30;;;;;;;;;;5064697;28;20938;-78
2023/10/18 04:01:19;;;;;;;4.83;1.90;;;;;;;;;;5063982;28;20758;-78
2023/10/18 04:03:45;;;;;;;7.50;3.20;;;;;;;;;;5064083;28;20505;-78
2023/10/18 04:06:21;;;;;;;13.17;2.93;;;;;;;;;;5063330;28;20414;-79
2023/10/18 04:08:47;;;;;;;7.00;2.23;;;;;;;;;;5073990;28;20476;-79
2023/10/18 04:11:24;;;;;;;12.63;2.90;;;;;;;;;;5073489;28;20883;-79
2023/10/18 04:13:50;;;;;;;5.07;1.70;;;;;;;;;;5073465;28;20549;-79
2023/10/18 04:16:18;;;;;;;14.30;3.17;;;;;;;;;;5072859;28;20742;-79
2023/10/18 04:18:47;;;;;;;6.93;3.33;;;;;;;;;;5073518;28;20500;-79
2023/10/18 04:21:15;;;;;;;5.60;2.93;;;;;;;;;;5073298;28;20440;-78
2023/10/18 04:23:49;;;;;;;3.67;2.40;;;;;;;;;;5073282;28;20403;-80
2023/10/18 04:26:18;;;;;;;3.60;2.67;;;;;;;;;;5073359;28;20438;-79
2023/10/18 04:28:45;;;;;;;2.63;1.77;;;;;;;;;;5073400;28;20919;-79
2023/10/18 04:31:12;;;;;;;4.73;2.80;;;;;;;;;;5073242;28;20407;-78
2023/10/18 04:33:42;;;;;;;5.03;2.77;;;;;;;;;;5072802;28;20565;-80
2023/10/18 04:36:11;;;;;;;5.40;2.77;;;;;;;;;;5073241;28;20415;-79
2023/10/18 04:38:44;;;;;;;3.97;1.97;;;;;;;;;;5074011;28;20415;-79
2023/10/18 04:41:30;;;;;;;3.13;1.80;;;;;;;;;;5073244;28;20977;-79
2023/10/18 04:44:07;;;;;;;8.70;1.40;;;;;;;;;;5073112;28;20408;-77
2023/10/18 04:46:35;;;;;;;2.47;1.80;;;;;;;;;;5073015;28;20511;-77
2023/10/18 04:49:16;;;;;;;3.97;2.93;;;;;;;;;;5072790;28;20764;-77
2023/10/18 04:54:15;;;;;;;4.87;2.00;;;;;;;;;;5072780;28;20462;-78
2023/10/18 04:56:44;;;;;;;2.57;2.27;;;;;;;;;;5073011;28;20480;-78
2023/10/18 04:59:11;;;;;;;3.03;2.33;;;;;;;;;;5072876;28;20407;-78
2023/10/18 05:04:24;;;;;;;3.57;2.77;;;;;;;;;;5072612;28;20416;-78
2023/10/18 05:07:14;;;;;;;2.17;1.60;;;;;;;;;;5072878;28;20500;-78
2023/10/18 05:09:43;;;;;;;3.60;1.50;;;;;;;;;;5072886;28;20405;-79
2023/10/18 05:12:27;;;;;;;3.93;2.30;;;;;;;;;;5073287;28;20758;-79
2023/10/18 05:17:28;;;;;;;2.20;2.00;;;;;;;;;;5072726;28;20408;-78
2023/10/18 05:19:56;;;;;;;2.80;1.90;;;;;;;;;;5072426;28;20399;-79
2023/10/18 05:22:25;;;;;;;1.70;1.60;;;;;;;;;;5072752;28;20784;-79
2023/10/18 05:24:56;;;;;;;2.20;1.83;;;;;;;;;;5072627;28;20468;-79
2023/10/18 05:27:27;;;;;;;2.13;1.67;;;;;;;;;;5073931;28;20407;-79
2023/10/18 05:29:54;;;;;;;2.93;1.60;;;;;;;;;;5076808;28;20411;-79
2023/10/18 05:35:03;;;;;;;2.50;1.67;;;;;;;;;;5076219;28;20947;-78
2023/10/18 05:37:33;;;;;;;2.30;1.33;;;;;;;;;;5076666;28;20613;-79
2023/10/18 05:42:47;;;;;;;2.57;2.10;;;;;;;;;;5076374;28;20488;-78
2023/10/18 05:45:13;;;;;;;1.83;1.27;;;;;;;;;;5076343;28;20759;-78
2023/10/18 05:47:42;;;;;;;2.70;1.30;;;;;;;;;;5076129;28;20450;-77
2023/10/18 05:50:12;;;;;;;1.90;1.60;;;;;;;;;;5076219;28;20407;-78
2023/10/18 05:52:38;;;;;;;2.50;1.93;;;;;;;;;;5076816;28;20512;-78
2023/10/18 05:55:08;;;;;;;3.30;2.10;;;;;;;;;;5076167;28;20423;-78
2023/10/18 05:57:34;;;;;;;2.30;1.47;;;;;;;;;;5076221;28;20406;-77
2023/10/18 06:00:00;;;;;;;2.93;2.27;;;;;;;;;;5058254;28;20431;-77
2023/10/18 06:02:27;;;;;;;1.90;1.40;;;;;;;;;;5076046;28;20502;-77
2023/10/18 06:04:55;;;;;;;3.90;2.00;;;;;;;;;;5075638;28;20490;-77
2023/10/18 06:07:24;;;;;;;3.83;3.03;;;;;;;;;;5075930;28;20506;-76
2023/10/18 06:10:13;;;;;;;3.88;2.03;;;;;;;;;;5075629;28;20452;-77
2023/10/18 06:12:41;;;;;;;3.33;1.97;;;;;;;;;;5057948;28;20188;-76
2023/10/18 06:15:13;;;;;;;2.70;2.30;;;;;;;;;;5076499;28;20415;-78
2023/10/18 06:17:52;;;;;;;2.97;1.40;;;;;;;;;;5071577;28;20408;-76
2023/10/18 06:20:27;;;;;;;3.07;2.17;;;;;;;;;;5038360;28;20932;-77
2023/10/18 06:23:09;;;;;;;3.40;1.57;;;;;;;;;;5056329;28;20423;-77
2023/10/18 06:25:38;;;;;;;2.53;1.93;;;;;;;;;;5055812;28;20428;-77
2023/10/18 06:28:07;;;;;;;4.30;2.40;;;;;;;;;;5037720;28;20424;-76
2023/10/18 06:30:39;;;;;;;3.97;1.60;;;;;;;;;;5055571;28;20845;-77
2023/10/18 06:33:15;;;;;;;3.23;1.80;;;;;;;;;;5055127;28;20448;-76
2023/10/18 06:35:42;;;;;;;2.43;1.97;;;;;;;;;;5055440;28;20432;-77
2023/10/18 06:38:10;;;;;;;3.40;1.73;;;;;;;;;;5054930;28;20410;-76
2023/10/18 06:41:00;;;;;;;4.17;2.47;;;;;;;;;;5037347;28;20409;-76
2023/10/18 06:43:26;;;;;;;2.37;1.50;;;;;;;;;;5037467;28;20412;-76
2023/10/18 06:45:53;;;;;;;2.90;2.17;;;;;;;;;;5055318;28;20801;-77
2023/10/18 06:48:19;;;;;;;3.97;2.63;;;;;;;;;;5054667;28;20979;-77
2023/10/18 06:50:46;;;;;;;3.10;1.93;;;;;;;;;;5037200;28;20420;-77
2023/10/18 06:53:14;;;;;;;4.07;2.57;;;;;;;;;;5055055;28;20497;-77
2023/10/18 06:55:44;;;;;;;1.93;1.40;;;;;;;;;;5055136;28;20408;-77
2023/10/18 06:58:15;;;;;;;1.93;1.63;;;;;;;;;;5055088;28;20409;-77
2023/10/18 07:00:46;;;;;;;4.40;2.10;;;;;;;;;;5055083;28;20412;-77
2023/10/18 07:03:18;;;;;;;3.50;2.10;;;;;;;;;;5054958;28;20432;-77
2023/10/18 07:05:52;;;;;;;3.90;2.27;;;;;;;;;;5054932;28;20438;-77
2023/10/18 07:08:25;;;;;;;6.13;2.77;;;;;;;;;;5054839;28;20400;-77
2023/10/18 07:10:57;;;;;;;5.13;2.67;;;;;;;;;;5054825;28;20407;-77
2023/10/18 07:13:38;;;;;;;4.37;2.67;;;;;;;;;;5054582;28;20460;-77
2023/10/18 07:16:48;;;;;;;4.60;2.60;;;;;;;;;;5054684;28;20421;-77
2023/10/18 07:21:42;;;;;;;6.30;3.40;;;;;;;;;;5054584;28;20396;-77
2023/10/18 07:24:12;;;;;;;3.33;2.17;;;;;;;;;;5054728;28;20412;-81
2023/10/18 07:26:38;;;;;;;3.97;3.33;;;;;;;;;;5054434;28;20419;-77
2023/10/18 07:29:07;;;;;;;6.23;2.93;;;;;;;;;;5054435;28;20414;-77
2023/10/18 07:31:42;;;;;;;3.37;2.40;;;;;;;;;;5054553;28;20816;-77
2023/10/18 07:34:08;;;;;;;8.90;3.30;;;;;;;;;;5053966;28;20468;-78
2023/10/18 07:36:44;;;;;;;4.20;2.93;;;;;;;;;;5054417;28;20559;-77
2023/10/18 07:39:24;;;;;;;4.10;2.67;;;;;;;;;;5054413;28;20535;-77
2023/10/18 07:41:50;;;;;;;4.27;1.90;;;;;;;;;;5054156;28;20906;-77
2023/10/18 07:44:16;;;;;;;5.23;3.27;;;;;;;;;;5036310;28;20472;-77
2023/10/18 07:46:42;;;;;;;4.10;1.93;;;;;;;;;;5053941;28;20513;-78
2023/10/18 07:49:13;;;;;;;4.70;2.77;;;;;;;;;;5053984;28;20512;-78
2023/10/18 07:51:49;;;;;;;5.10;2.00;;;;;;;;;;5053628;28;20418;-78
2023/10/18 07:54:15;;;;;;;3.17;1.90;;;;;;;;;;5071291;28;20562;-78
2023/10/18 07:56:48;;;;;;;3.53;1.47;;;;;;;;;;5073768;28;20821;-78
2023/10/18 07:59:30;;;;;;;2.70;1.40;;;;;;;;;;5073868;28;20416;-78
2023/10/18 08:02:12;;;;;;;3.77;1.90;;;;;;;;;;5073990;28;20410;-78
2023/10/18 08:04:40;;;;;;;2.60;1.97;;;;;;;;;;5073589;28;20936;-79
2023/10/18 08:07:10;;;;;;;6.10;2.40;;;;;;;;;;5073821;28;20408;-78
2023/10/18 08:09:42;;;;;;;4.37;2.77;;;;;;;;;;5061626;28;20430;-78
2023/10/18 08:12:19;;;;;;;4.63;1.93;;;;;;;;;;5061502;28;20458;-79
2023/10/18 08:14:47;;;;;;;4.10;1.93;;;;;;;;;;5063660;28;20470;-79
2023/10/18 08:20:17;;;;;;;4.53;1.40;;;;;;;;;;5068371;28;20423;-79
2023/10/18 08:22:43;;;;;;;3.40;1.63;;;;;;;;;;5063895;28;20411;-80
2023/10/18 08:25:21;;;;;;;2.93;1.43;;;;;;;;;;5045860;28;20416;-82
2023/10/18 08:27:47;;;;;;;3.70;1.67;;;;;;;;;;5065318;28;20412;-80
2023/10/18 08:30:23;;;;;;;4.83;2.70;;;;;;;;;;5063968;28;20502;-79
2023/10/18 08:32:51;;;;;;;3.07;2.20;;;;;;;;;;5061334;28;20474;-80
2023/10/18 08:35:19;;;;;;;4.40;1.93;;;;;;;;;;5064472;28;20419;-83
2023/10/18 08:37:45;;;;;;;5.17;2.30;;;;;;;;;;5061760;28;20414;-80
2023/10/18 08:41:11;;;;;;;4.70;1.50;;;;;;;;;;5065360;28;20414;-81
2023/10/18 08:43:06;;;;;;;3.97;2.03;;;;;;;;;;5047679;28;20183;-81
2023/10/18 08:45:36;;;;;;;5.60;2.97;;;;;;;;;;5045305;28;20769;-82
2023/10/18 08:48:10;;;;;;;3.40;2.30;;;;;;;;;;5061130;28;20459;-80
2023/10/18 08:50:40;;;;;;;3.90;2.80;;;;;;;;;;5072689;28;20405;-80
2023/10/18 08:53:06;;;;;;;3.30;2.30;;;;;;;;;;5072585;28;20494;-78
2023/10/18 08:55:45;;;;;;;3.30;2.60;;;;;;;;;;5072485;28;20916;-78
2023/10/18 08:58:22;;;;;;;3.10;2.40;;;;;;;;;;5072824;28;20921;-78
2023/10/18 09:03:23;;;;;;;3.10;2.07;;;;;;;;;;5072463;28;20501;-77
2023/10/18 09:05:50;;;;;;;6.70;2.67;;;;;;;;;;5072051;28;20414;-79
2023/10/18 09:08:19;;;;;;;3.50;2.30;;;;;;;;;;5068382;28;20463;-78
2023/10/18 09:10:54;;;;;;;2.90;2.60;;;;;;;;;;5065955;28;20463;-77
2023/10/18 09:18:20;;;;;;;2.90;1.90;;;;;;;;;;5052525;28;20904;-79
2023/10/18 09:20:46;;;;;;;3.33;2.83;;;;;;;;;;5052621;28;20481;-78
2023/10/18 09:23:24;;;;;;;2.30;2.00;;;;;;;;;;5052697;28;20496;-79
2023/10/18 09:25:50;;;;;;;2.80;2.27;;;;;;;;;;5059233;28;20403;-78
2023/10/18 09:28:25;;;;;;;3.50;2.60;;;;;;;;;;5072504;28;20768;-78
2023/10/18 09:30:54;;;;;;;2.17;1.60;;;;;;;;;;5072628;28;20432;-78
2023/10/18 09:33:20;;;;;;;4.53;2.20;;;;;;;;;;5054057;28;20497;-79
2023/10/18 09:35:49;;;;;;;2.17;1.97;;;;;;;;;;5072419;28;20449;-78
2023/10/18 09:38:18;;;;;;;3.00;2.30;;;;;;;;;;5072543;28;20411;-78
2023/10/18 09:40:44;;;;;;;4.83;2.40;;;;;;;;;;5072447;28;20415;-78
2023/10/18 09:43:13;;;;;;;3.20;1.80;;;;;;;;;;5053873;28;20423;-79
2023/10/18 09:45:39;;;;;;;2.27;1.80;;;;;;;;;;5072461;28;20419;-79
2023/10/18 09:48:08;;;;;;;2.67;1.77;;;;;;;;;;5071951;28;20481;-78
2023/10/18 09:50:36;;;;;;;1.93;1.60;;;;;;;;;;5054285;28;20431;-80
2023/10/18 09:53:08;;;;;;;2.13;1.10;;;;;;;;;;5072178;28;20554;-78
2023/10/18 09:55:34;;;;;;;2.07;1.30;;;;;;;;;;5071940;28;20430;-80
2023/10/18 09:58:03;;;;;;;2.10;1.20;;;;;;;;;;5072291;28;20921;-80
2023/10/18 10:00:42;;;;;;;2.03;1.00;;;;;;;;;;5072446;28;20418;-80
2023/10/18 10:03:24;;;;;;;2.70;0.70;;;;;;;;;;5071956;28;20899;-78
2023/10/18 10:05:50;;;;;;;1.37;0.57;;;;;;;;;;5054558;28;20927;-77
2023/10/18 10:08:18;;;;;;;2.37;0.90;;;;;;;;;;5054304;28;20415;-83
2023/10/18 10:10:45;;;;;;;2.20;1.10;;;;;;;;;;5054441;28;20429;-82
2023/10/18 10:13:18;;;;;;;2.27;1.00;;;;;;;;;;5072475;28;20465;-80
2023/10/18 10:15:46;;;;;;;1.77;1.20;;;;;;;;;;5057979;28;20516;-81
2023/10/18 10:18:13;;;;;;;1.00;0.70;;;;;;;;;;5069262;28;20428;-82
2023/10/18 10:20:41;;;;;;;3.13;1.17;;;;;;;;;;5051412;28;20760;-89
2023/10/18 10:23:14;;;;;;;1.30;0.77;;;;;;;;;;5055057;28;20451;-81
2023/10/18 10:25:48;;;;;;;2.00;1.20;;;;;;;;;;5075598;28;20392;-84
2023/10/18 10:28:53;;;;;;;1.53;0.67;;;;;;;;;;5075756;28;20417;-84
2023/10/18 10:31:26;;;;;;;1.50;0.70;;;;;;;;;;5074956;28;20435;-85
2023/10/18 10:34:07;;;;;;;1.20;0.57;;;;;;;;;;5074721;28;20473;-81
2023/10/18 10:36:35;;;;;;;4.13;0.77;;;;;;;;;;5055409;28;20417;-81
2023/10/18 10:39:02;;;;;;;4.63;1.00;;;;;;;;;;5054444;28;20479;-80
2023/10/18 10:41:31;;;;;;;2.80;1.00;;;;;;;;;;5055195;28;20431;-81
2023/10/18 10:44:21;;;;;;;2.87;1.53;;;;;;;;;;5055240;28;20897;-83
2023/10/18 10:46:50;;;;;;;2.50;1.27;;;;;;;;;;5063246;28;20455;-79
2023/10/18 10:49:41;;;;;;;2.90;1.13;;;;;;;;;;5065109;28;20426;-80
2023/10/18 10:52:07;;;;;;;2.33;1.20;;;;;;;;;;5055705;28;20976;-81
2023/10/18 10:54:37;;;;;;;2.93;1.80;;;;;;;;;;5068237;28;20832;-82
2023/10/18 10:57:03;;;;;;;2.00;1.33;;;;;;;;;;5065280;28;20417;-82
2023/10/18 10:59:36;;;;;;;3.90;1.20;;;;;;;;;;5064528;28;20891;-82
2023/10/18 11:02:21;;;;;;;2.53;1.23;;;;;;;;;;5065233;28;21103;-81
2023/10/18 11:04:57;;;;;;;1.90;0.90;;;;;;;;;;5065520;28;20400;-80
2023/10/18 11:07:28;;;;;;;2.43;1.30;;;;;;;;;;5063982;28;20416;-79
2023/10/18 11:10:04;;;;;;;4.90;1.20;;;;;;;;;;5068441;28;20417;-81
2023/10/18 11:12:33;;;;;;;2.80;1.40;;;;;;;;;;5064066;28;20929;-80
2023/10/18 11:15:00;;;;;;;1.80;0.77;;;;;;;;;;5060938;28;20785;-80
2023/10/18 11:17:26;;;;;;;1.73;1.50;;;;;;;;;;5060113;28;20417;-81
2023/10/18 11:19:53;;;;;;;7.93;1.90;;;;;;;;;;5067924;28;20438;-79
2023/10/18 11:22:23;;;;;;;3.00;1.37;;;;;;;;;;5044714;28;20427;-81
2023/10/18 11:24:50;;;;;;;2.47;1.00;;;;;;;;;;5064078;28;20427;-80
2023/10/18 11:27:33;;;;;;;4.73;1.60;;;;;;;;;;5065791;28;20490;-80
2023/10/18 11:32:48;;;;;;;3.63;1.17;;;;;;;;;;5068948;28;20407;-80
2023/10/18 11:35:18;;;;;;;1.53;1.07;;;;;;;;;;5072878;28;20426;-80
2023/10/18 11:37:45;;;;;;;1.97;1.20;;;;;;;;;;5070839;28;20402;-84
2023/10/18 11:40:30;;;;;;;1.50;1.00;;;;;;;;;;5065359;28;20418;-83
2023/10/18 11:43:09;;;;;;;6.73;1.53;;;;;;;;;;5072929;28;20411;-79
2023/10/18 11:45:38;;;;;;;2.90;1.43;;;;;;;;;;5069451;28;20440;-86
2023/10/18 11:48:14;;;;;;;3.80;1.77;;;;;;;;;;5053190;28;20470;-85
2023/10/18 11:50:53;;;;;;;8.80;2.20;;;;;;;;;;5069615;28;20415;-82
2023/10/18 11:53:24;;;;;;;3.00;1.30;;;;;;;;;;5053736;28;20467;-78
2023/10/18 11:55:57;;;;;;;3.13;1.40;;;;;;;;;;5055336;28;20426;-85
2023/10/18 11:58:23;;;;;;;2.13;1.40;;;;;;;;;;5073437;28;20489;-83
2023/10/18 12:01:13;;;;;;;3.33;1.20;;;;;;;;;;5045447;28;20442;-84
2023/10/18 12:03:38;;;;;;;5.17;2.03;;;;;;;;;;5051011;28;20443;-85
2023/10/18 12:06:04;;;;;;;3.30;1.60;;;;;;;;;;5068350;28;20443;-83
2023/10/18 12:08:47;;;;;;;2.87;1.20;;;;;;;;;;5054243;28;20427;-87
2023/10/18 12:11:13;;;;;;;3.40;1.23;;;;;;;;;;5072543;28;20483;-86
2023/10/18 12:13:39;;;;;;;3.83;1.50;;;;;;;;;;5072751;28;20475;-80
2023/10/18 12:16:08;;;;;;;1.87;1.10;;;;;;;;;;5071960;28;20752;-84
2023/10/18 12:18:35;;;;;;;3.00;1.63;;;;;;;;;;5071868;28;20169;-84
2023/10/18 12:21:01;;;;;;;2.70;1.93;;;;;;;;;;5069232;28;20834;-82
2023/10/18 12:23:27;;;;;;;3.60;1.70;;;;;;;;;;5072161;28;20500;-80
2023/10/18 12:25:53;;;;;;;2.47;1.37;;;;;;;;;;5071826;28;20530;-84
2023/10/18 12:28:27;;;;;;;1.97;1.30;;;;;;;;;;5072131;28;20496;-84
2023/10/18 12:30:55;;;;;;;3.03;0.97;;;;;;;;;;5066120;28;20643;-85
2023/10/18 12:33:25;;;;;;;3.67;1.80;;;;;;;;;;5054715;28;21009;-86
2023/10/18 12:35:52;;;;;;;13.10;3.20;;;;;;;;;;5069633;28;20414;-85
2023/10/18 12:38:30;;;;;;;7.00;1.33;;;;;;;;;;5053245;28;20422;-84
2023/10/18 12:41:01;;;;;;;3.23;1.57;;;;;;;;;;5052813;28;20416;-83
2023/10/18 12:43:31;;;;;;;3.80;1.87;;;;;;;;;;5052813;28;20422;-85
2023/10/18 12:45:57;;;;;;;3.77;2.07;;;;;;;;;;5053136;28;20412;-87
2023/10/18 12:48:24;;;;;;;3.00;1.67;;;;;;;;;;5052382;28;20463;-86
2023/10/18 12:50:53;;;;;;;2.53;2.00;;;;;;;;;;5035102;28;20645;-85
2023/10/18 12:55:58;;;;;;;2.50;1.80;;;;;;;;;;5052985;28;20411;-85
2023/10/18 12:58:31;;;;;;;3.30;2.40;;;;;;;;;;5035123;28;20751;-84
2023/10/18 13:01:08;;;;;;;2.97;2.50;;;;;;;;;;5061392;28;20425;-86
2023/10/18 13:03:37;;;;;;;4.90;2.60;;;;;;;;;;5072476;28;20416;-85
2023/10/18 13:06:08;;;;;;;2.60;2.40;;;;;;;;;;5072823;28;20436;-83
2023/10/18 13:08:37;;;;;;;2.90;2.17;;;;;;;;;;5071538;28;20904;-82
2023/10/18 13:13:30;;;;;;;5.10;2.10;;;;;;;;;;5072273;28;21007;-84
2023/10/18 13:15:57;;;;;;;4.00;2.07;;;;;;;;;;5072353;28;20443;-84
2023/10/18 13:18:23;;;;;;;3.50;2.43;;;;;;;;;;5054177;28;20467;-83
2023/10/18 13:20:49;;;;;;;3.63;2.10;;;;;;;;;;5072430;28;20409;-84
2023/10/18 13:23:18;;;;;;;4.13;2.47;;;;;;;;;;5072320;28;20178;-85
2023/10/18 13:25:54;;;;;;;4.03;2.03;;;;;;;;;;5072331;28;20171;-84
2023/10/18 13:28:33;;;;;;;2.40;1.60;;;;;;;;;;5072316;28;20770;-84
2023/10/18 13:31:04;;;;;;;2.50;1.53;;;;;;;;;;5072129;28;20441;-86
2023/10/18 13:33:30;;;;;;;3.20;2.47;;;;;;;;;;5071914;28;20476;-82
2023/10/18 13:35:56;;;;;;;2.43;1.30;;;;;;;;;;5072361;28;20413;-87
2023/10/18 13:38:23;;;;;;;2.87;1.50;;;;;;;;;;5072166;28;20421;-85
2023/10/18 13:40:49;;;;;;;2.43;1.27;;;;;;;;;;5072238;28;20416;-87
2023/10/18 13:43:17;;;;;;;2.17;1.10;;;;;;;;;;5072178;28;20405;-83
2023/10/18 13:45:45;;;;;;;5.17;3.77;;;;;;;;;;5072293;28;20777;-85
2023/10/18 13:48:12;;;;;;;9.20;2.27;;;;;;;;;;5072723;28;20528;-84
2023/10/18 13:50:41;;;;;;;2.97;1.47;;;;;;;;;;5076134;28;20570;-84
2023/10/18 13:53:10;;;;;;;1.90;0.90;;;;;;;;;;5075899;28;20858;-80
2023/10/18 13:55:36;;;;;;;2.20;1.53;;;;;;;;;;5075854;28;20470;-79
2023/10/18 13:58:07;;;;;;;3.93;1.47;;;;;;;;;;5075635;28;20910;-81
2023/10/18 14:00:35;;;;;;;1.97;1.20;;;;;;;;;;5075848;28;20272;-83
2023/10/18 14:03:01;;;;;;;3.00;1.50;;;;;;;;;;5053440;28;20428;-83
2023/10/18 14:05:27;;;;;;;2.83;1.20;;;;;;;;;;5075657;28;20421;-82
2023/10/18 14:07:53;;;;;;;2.07;1.17;;;;;;;;;;5075623;28;20418;-81
2023/10/18 14:10:27;;;;;;;3.20;1.53;;;;;;;;;;5075460;28;20420;-81
2023/10/18 14:12:54;;;;;;;2.50;1.50;;;;;;;;;;5056968;28;20763;-84
2023/10/18 14:15:20;;;;;;;2.33;1.00;;;;;;;;;;5075721;28;20417;-85
2023/10/18 14:17:46;;;;;;;2.87;1.83;;;;;;;;;;5075299;28;20414;-84
2023/10/18 14:20:13;;;;;;;4.60;1.90;;;;;;;;;;5075570;28;20482;-84
2023/10/18 14:22:40;;;;;;;3.57;1.43;;;;;;;;;;5075541;28;20399;-83
2023/10/18 14:25:13;;;;;;;4.40;1.40;;;;;;;;;;5075548;28;20412;-85
2023/10/18 14:27:40;;;;;;;3.33;2.00;;;;;;;;;;5074436;28;20410;-81
2023/10/18 14:30:12;;;;;;;3.70;1.50;;;;;;;;;;5074738;28;20416;-84
2023/10/18 14:32:39;;;;;;;5.83;1.57;;;;;;;;;;5056742;28;20924;-83
2023/10/18 14:35:05;;;;;;;3.20;1.97;;;;;;;;;;5075066;28;20421;-84
2023/10/18 14:37:32;;;;;;;2.33;1.87;;;;;;;;;;5073759;28;20464;-82
2023/10/18 14:39:58;;;;;;;3.23;1.90;;;;;;;;;;5073805;28;20567;-84
2023/10/18 14:42:28;;;;;;;2.80;1.23;;;;;;;;;;5074787;28;20918;-86
2023/10/18 14:44:57;;;;;;;3.37;1.93;;;;;;;;;;5056091;28;20434;-84
2023/10/18 14:47:23;;;;;;;2.77;1.70;;;;;;;;;;5074272;28;20501;-84
2023/10/18 14:49:49;;;;;;;4.50;1.00;;;;;;;;;;5074557;28;20455;-84
2023/10/18 14:52:19;;;;;;;6.30;1.87;;;;;;;;;;5074714;28;20629;-84
2023/10/18 14:54:45;;;;;;;7.07;4.77;;;;;;;;;;5074518;28;20204;-84
2023/10/18 14:57:11;;;;;;;5.77;3.00;;;;;;;;;;5074543;28;20406;-83
2023/10/18 14:59:37;;;;;;;8.70;4.00;;;;;;;;;;5074088;28;20411;-83
2023/10/18 15:02:03;;;;;;;2.13;1.00;;;;;;;;;;5072645;28;20426;-79
2023/10/18 15:04:30;;;;;;;4.23;1.30;;;;;;;;;;5070857;28;20937;-85
2023/10/18 15:06:56;;;;;;;2.30;0.77;;;;;;;;;;5064339;28;20419;-86
2023/10/18 15:09:23;;;;;;;2.00;1.13;;;;;;;;;;5064392;28;20417;-84
2023/10/18 15:11:51;;;;;;;1.90;1.23;;;;;;;;;;5064636;28;20432;-84
2023/10/18 15:14:18;;;;;;;12.53;2.17;;;;;;;;;;5063448;28;20555;-83
2023/10/18 15:16:45;;;;;;;2.27;1.37;;;;;;;;;;5044916;28;20433;-83
2023/10/18 15:19:14;;;;;;;2.13;1.13;;;;;;;;;;5044690;28;21018;-84
2023/10/18 15:21:40;;;;;;;2.77;1.13;;;;;;;;;;5063084;28;20410;-80
2023/10/18 15:24:07;;;;;;;3.20;1.40;;;;;;;;;;5054563;28;20774;-91
2023/10/18 15:26:38;;;;;;;3.30;1.80;;;;;;;;;;5054354;28;20399;-81
2023/10/18 15:29:03;;;;;;;2.77;1.77;;;;;;;;;;5057006;28;20776;-81
2023/10/18 15:31:30;;;;;;;2.23;1.20;;;;;;;;;;5073615;28;20418;-81
2023/10/18 15:33:56;;;;;;;2.27;1.20;;;;;;;;;;5056084;28;20476;-83
2023/10/18 15:36:23;;;;;;;2.10;1.30;;;;;;;;;;5074222;28;20847;-80